Tiempo atmosférico en la estación meteorológica de Cañaveral, Cáceres (373 m.)

Fecha
DESCASC
Temp. máxima en grados centígrados (hora)
DESCASC
Temp. mínima en grados centígrados (hora)
DESCASC
Temp. media en grados centígrados
DESCASC
Racha de viento máxima en m/sg (hora)
DESCASC
Velocidad máxima media en intervalos de 10 minutos(hora)
DESCASC
Precipitaciones diarias en mm
DESCASC
Precipitaciones de 00:00 a 06:00 en mm
DESCASC
Precipitaciones de 06:00 a 12:00 en mm
DESCASC
Precipitaciones de 12:00 a 18:00 en mm
DESCASC
Precipitaciones de 18:00 a 24:00 en mm
DESCASC
22-10-2017 22.8 (16:40) 11.9 (08:00) 17.3 13.89 (05:00) 10 (05:00) 0 0 0 0 0
21-10-2017 21.6 (16:20) 13.3 (23:50) 17.5 12.78 (20:20) 9.17 (20:20) 0 0 0 0 0
20-10-2017 22.5 (16:20) 15.6 (02:30) 19.1 6.94 (17:30) 4.17 (17:30) 0.8 0 0 0.2 0.6
19-10-2017 19.3 (17:10) 9.8 (00:00) 14.5 9.17 (18:30) 5.56 (18:00) 0 0 0 0 0
18-10-2017 19.1 (15:20) 12.4 (00:00) 15.8 11.11 (14:50) 6.94 (15:10) 5.4 3.2 2.2 0 0
17-10-2017 22.2 (16:40) 14.5 (00:00) 18.4 11.11 (17:50) 7.5 (17:40) 4.6 0 2.8 1.8 0
16-10-2017 28.9 (15:00) 17.8 (00:00) 23.3 8.89 (19:40) 6.11 (19:40) 0 0 0 0 0
15-10-2017 32.8 (16:50) 20.9 (00:00) 26.8 11.67 (10:50) 7.22 (12:20) 0 0 0 0 0
14-10-2017 30.6 (16:20) 15.6 (00:00) 23.1 7.5 (19:40) 4.72 (21:10) 0 0 0 0 0
13-10-2017 30.3 (16:50) 16.3 (00:00) 23.3 6.94 (15:50) 4.17 (15:40) 0 0 0 0 0
12-10-2017 32.2 (17:00) 17.3 (00:00) 24.8 9.17 (18:00) 6.11 (11:50) 0 0 0 0 0
11-10-2017 30.1 (16:40) 14.9 (00:00) 22.5 7.22 (17:30) 4.17 (17:50) 0 0 0 0 0
10-10-2017 31.2 (16:30) 15.5 (00:00) 23.4 6.94 (12:50) 3.89 (12:50) 0 0 0 0 0
09-10-2017 31.1 (16:30) 14.5 (00:00) 22.8 6.11 (16:20) 3.61 (17:00) 0 0 0 0 0
08-10-2017 31.5 (17:30) 16.5 (00:00) 24 9.17 (15:50) 4.72 (11:10) 0 0 0 0 0
07-10-2017 30.1 (17:10) 20.1 (00:00) 25.1 12.5 (10:50) 8.33 (12:00) 0 0 0 0 0
06-10-2017 33.3 (16:50) 22 (00:00) 27.6 13.06 (07:30) 9.44 (07:30) 0 0 0 0 0
05-10-2017 33.1 (17:30) 17.9 (00:00) 25.5 7.78 (00:10) 5.28 (23:40) 0 0 0 0 0
04-10-2017 33.5 (16:50) 21.2 (00:00) 27.4 12.5 (09:50) 7.78 (09:50) 0 0 0 0 0
03-10-2017 34.6 (17:30) 19.5 (00:00) 27 8.33 (15:00) 3.89 (15:00) 0 0 0 0 0
02-10-2017 32.7 (16:50) 20.1 (00:00) 26.4 8.89 (16:20) 5 (01:30) 0 0 0 0 0
01-10-2017 31.3 (17:20) 20.3 (00:00) 25.8 14.72 (03:00) 10.83 (00:40) 0 0 0 0 0
30-09-2017 30.1 (17:10) 17.1 (00:00) 23.6 11.39 (23:00) 7.78 (22:50) 0 0 0 0 0
29-09-2017 32.8 (17:00) 17.9 (00:00) 25.3 11.67 (23:20) 8.61 (23:10) 0 0 0 0 0
28-09-2017 31.7 (17:20) 17.4 (00:00) 24.6 6.67 (14:50) 3.33 (12:30) 0 0 0 0 0
27-09-2017 30 (17:10) 15 (00:00) 22.5 8.33 (11:30) 5.28 (11:20) 0 0 0 0 0
26-09-2017 29.2 (16:40) 18.1 (00:00) 23.7 10 (05:30) 7.5 (04:30) 0 0 0 0 0
25-09-2017 28.1 (17:10) 16.4 (00:00) 22.3 10.28 (17:20) 6.11 (11:00) 0 0 0 0 0
24-09-2017 31.6 (17:30) 15.9 (00:00) 23.8 10.28 (00:40) 7.5 (23:50) 0 0 0 0 0
23-09-2017 31.3 (16:40) 18.9 (00:00) 25.1 12.5 (10:00) 8.33 (10:10) 0 0 0 0 0

Gráficas

Temp. máximas Temp. mínimas Temp. medias Precipitaciones Rachas de viento máximas Velocidades máximas media en intervalos de 10 minutos

Datos horarios

Fecha y hora oficial Temperatura (ºC) Velocidad del viento (km/h) Dirección del viento Racha (km/h) Dirección de racha Precipitación (mm) Presión (hPa) Tendencia (hPa) Humedad (%)
2017-10-22 23:00:00 16.4 8 Este 14 Este 0 -- -- 49
2017-10-22 22:00:00 16.2 6 Norte 10 Norte 0 -- -- 52
2017-10-22 21:00:00 16.9 4 Norte 14 Norte 0 -- -- 48
2017-10-22 20:00:00 18.2 12 Norte 15 Norte 0 -- -- 47
2017-10-22 19:00:00 21.1 12 Norte 18 Noroeste 0 -- -- 41
2017-10-22 18:00:00 22.1 9 Norte 16 Nordeste 0 -- -- 37
2017-10-22 17:00:00 22.4 7 Norte 20 Nordeste 0 -- -- 39
2017-10-22 16:00:00 22.4 6 Este 21 Este 0 -- -- 39
2017-10-22 15:00:00 21.8 9 Este 24 Este 0 -- -- 41
2017-10-22 14:00:00 21 9 Este 25 Este 0 -- -- 43
2017-10-22 13:00:00 19.4 15 Nordeste 30 Este 0 -- -- 44
2017-10-22 12:00:00 18.3 19 Este 30 Este 0 -- -- 47
2017-10-22 11:00:00 16.8 17 Nordeste 30 Norte 0 -- -- 49
2017-10-22 10:00:00 13.1 15 Norte 31 Nordeste 0 -- -- 58
2017-10-22 09:00:00 12 19 Norte 33 Norte 0 -- -- 59
2017-10-22 08:00:00 11.9 25 Norte 38 Norte 0 -- -- 60
2017-10-22 07:00:00 12.4 25 Norte 42 Norte 0 -- -- 59
2017-10-22 06:00:00 12.7 24 Norte 48 Norte 0 -- -- 58
2017-10-22 05:00:00 12.9 36 Norte 50 Norte 0 -- -- 58
2017-10-22 04:00:00 13.4 35 Norte 50 Norte 0 -- -- 56
2017-10-22 03:00:00 12.8 28 Norte 42 Norte 0 -- -- 60
2017-10-22 02:00:00 12.4 16 Nordeste 26 Norte 0 -- -- 63
2017-10-22 01:00:00 13 8 Nordeste 18 Norte 0 -- -- 63
2017-10-22 00:00:00 13.4 3 Norte 13 Este 0 -- -- 61
2017-10-21 23:00:00 14.7 4 Nordeste 32 Noroeste 0 -- -- 56
2017-10-21 22:00:00 15.9 20 Noroeste 40 Norte 0 -- -- 52
2017-10-21 21:00:00 16.9 31 Norte 46 Norte 0 -- -- 48
2017-10-21 20:00:00 17.6 27 Noroeste 41 Noroeste 0 -- -- 45
2017-10-21 19:00:00 19.8 23 Norte 35 Norte 0 -- -- 38
2017-10-21 18:00:00 20.4 18 Norte 30 Norte 0 -- -- 45
2017-10-21 17:00:00 21 19 Noroeste 30 Noroeste 0 -- -- 54
2017-10-21 16:00:00 21.2 19 Norte 28 Norte 0 -- -- 58
2017-10-21 15:00:00 21.5 9 Noroeste 22 Noroeste 0 -- -- 61
2017-10-21 14:00:00 20.5 8 Noroeste 25 Norte 0 -- -- 65
2017-10-21 13:00:00 19.1 16 Norte 27 Norte 0 -- -- 72
2017-10-21 12:00:00 18.6 9 Oeste 20 Oeste 0 -- -- 83
2017-10-21 11:00:00 17.9 14 Oeste 20 Oeste 0 -- -- 88
2017-10-21 10:00:00 16.8 7 Oeste 18 Sudoeste 0 -- -- 94
2017-10-21 09:00:00 16.5 14 Oeste 22 Sudoeste 0 -- -- 94
2017-10-21 08:00:00 16.8 15 Oeste 22 Sudoeste 0 -- -- 93
2017-10-21 07:00:00 17.2 6 Sudoeste 17 Oeste 0 -- -- 93
2017-10-21 06:00:00 17.1 13 Oeste 20 Oeste 0 -- -- 93
2017-10-21 05:00:00 17.2 17 Oeste 27 Sudoeste 0 -- -- 92
2017-10-21 04:00:00 17.6 18 Oeste 31 Oeste 0 -- -- 91
2017-10-21 03:00:00 17.9 10 Sudoeste 15 Sudoeste 0 -- -- 92
2017-10-21 02:00:00 18.3 8 Oeste 14 Oeste 0 -- -- 93
2017-10-21 01:00:00 18.3 8 Oeste 13 Oeste 0 -- -- 94
2017-10-21 00:00:00 18.6 10 Oeste 14 Sudoeste 0 -- -- 94
2017-10-20 23:00:00 18.6 9 Sudoeste 16 Sudoeste 0 -- -- 94
2017-10-20 22:00:00 19 6 Sudoeste 11 Sudoeste 0.2 -- -- 93
2017-10-20 21:00:00 19.2 3 Oeste 8 Sudoeste 0 -- -- 92
2017-10-20 20:00:00 19.2 2 Sudoeste 8 Oeste 0 -- -- 91
2017-10-20 19:00:00 19.2 5 Oeste 16 Sudoeste 0.4 -- -- 91
2017-10-20 18:00:00 19.4 12 Sudoeste 25 Oeste 0.2 -- -- 88
2017-10-20 17:00:00 22.5 10 Sudoeste 18 Sudoeste 0 -- -- 68
2017-10-20 16:00:00 22 10 Oeste 19 Sudoeste 0 -- -- 70
2017-10-20 15:00:00 20.6 9 Sudoeste 16 Oeste 0 -- -- 75
2017-10-20 14:00:00 19.5 5 Oeste 12 Sudoeste 0 -- -- 80
2017-10-20 13:00:00 18.8 9 Sudoeste 13 Oeste 0 -- -- 83
2017-10-20 12:00:00 17.3 5 Noroeste 10 Oeste 0 -- -- 88
2017-10-20 11:00:00 16.7 6 Sur 13 Sur 0 -- -- 92
2017-10-20 10:00:00 16.4 6 Sur 9 Sur 0 -- -- 90
2017-10-20 09:00:00 16.1 5 Sur 6 Sur 0 -- -- 89
2017-10-20 08:00:00 16.2 6 Oeste 14 Oeste 0 -- -- 88
2017-10-20 07:00:00 16.1 4 Sudoeste 9 Sudoeste 0 -- -- 90
2017-10-20 06:00:00 16 5 Sudoeste 13 Oeste 0 -- -- 91
2017-10-20 05:00:00 15.8 10 Oeste 16 Oeste 0 -- -- 92
2017-10-20 04:00:00 16.1 6 Oeste 10 Oeste 0 -- -- 86
2017-10-20 03:00:00 15.8 3 Sudoeste 8 Sudoeste 0 -- -- 86
2017-10-20 02:00:00 15.8 7 Sudoeste 12 Sudoeste 0 -- -- 84
2017-10-20 01:00:00 16.1 7 Sudoeste 14 Oeste 0 -- -- 83
2017-10-20 00:00:00 16.2 10 Oeste 24 Oeste 0 -- -- 81
2017-10-19 23:00:00 15.9 8 Oeste 19 Oeste 0 -- -- 82
2017-10-19 22:00:00 16.3 12 Oeste 17 Oeste 0 -- -- 78
2017-10-19 21:00:00 17 9 Oeste 21 Oeste 0 -- -- 72
2017-10-19 20:00:00 17.4 17 Sudoeste 24 Oeste 0 -- -- 67
2017-10-19 19:00:00 18 17 Oeste 33 Oeste 0 -- -- 58
2017-10-19 18:00:00 18.3 20 Oeste 30 Oeste 0 -- -- 55
2017-10-19 17:00:00 19 14 Oeste 26 Oeste 0 -- -- 46
2017-10-19 16:00:00 18.7 17 Oeste 28 Oeste 0 -- -- 48
2017-10-19 15:00:00 19.1 15 Oeste 27 Oeste 0 -- -- 50
2017-10-19 14:00:00 17.6 12 Oeste 22 Oeste 0 -- -- 56
2017-10-19 13:00:00 16.4 14 Sudoeste 21 Sudoeste 0 -- -- 64
2017-10-19 12:00:00 14.8 6 Sudoeste 13 Oeste 0 -- -- 75
2017-10-19 11:00:00 13.3 4 Oeste 9 Sudoeste 0 -- -- 79
2017-10-19 10:00:00 10.9 3 Oeste 6 Oeste 0 -- -- 90
2017-10-19 09:00:00 10.2 0 Calma 12 Norte 0 -- -- 90
2017-10-19 08:00:00 12.1 4 Nordeste 14 Norte 0 -- -- 75
2017-10-19 07:00:00 10.5 2 Oeste 4 Oeste 0 -- -- 87
2017-10-19 06:00:00 11.5 3 Norte 8 Nordeste 0 -- -- 79
2017-10-19 05:00:00 11 4 Oeste 10 Nordeste 0 -- -- 79
2017-10-19 04:00:00 11.3 0 Calma 6 Norte 0 -- -- 78
2017-10-19 03:00:00 11.8 5 Norte 9 Nordeste 0 -- -- 76
2017-10-19 02:00:00 12.2 2 Oeste 8 Oeste 0 -- -- 75
2017-10-19 01:00:00 12.7 3 Oeste 8 Sudeste 0 -- -- 74
2017-10-19 00:00:00 13.9 8 Noroeste 14 Noroeste 0 -- -- 64
2017-10-18 23:00:00 13.8 6 Sudoeste 10 Sudoeste 0 -- -- 69
2017-10-18 22:00:00 14.5 4 Sudoeste 7 Oeste 0 -- -- 64
2017-10-18 21:00:00 15.2 3 Oeste 13 Oeste 0 -- -- 62
2017-10-18 20:00:00 15.7 6 Oeste 21 Sudoeste 0 -- -- 61
2017-10-18 19:00:00 17.7 17 Sudoeste 27 Sudoeste 0 -- -- 52
2017-10-18 18:00:00 17.7 18 Oeste 33 Oeste 0 -- -- 49
2017-10-18 17:00:00 19 25 Oeste 37 Oeste 0 -- -- 45
2017-10-18 16:00:00 17 21 Oeste 39 Oeste 0 -- -- 55
2017-10-18 15:00:00 18.8 22 Oeste 40 Oeste 0 -- -- 49
2017-10-18 14:00:00 17.4 20 Oeste 32 Oeste 0 -- -- 61
2017-10-18 13:00:00 16 21 Oeste 29 Oeste 0 -- -- 68
2017-10-18 12:00:00 15 14 Oeste 21 Sudoeste 0 -- -- 85
2017-10-18 11:00:00 13.5 9 Sudoeste 14 Sudoeste 0 -- -- 94
2017-10-18 10:00:00 13.1 10 Sudoeste 16 Sudoeste 0 -- -- 95
2017-10-18 09:00:00 12.6 8 Sudoeste 13 Sudoeste 0.2 -- -- 94
2017-10-18 08:00:00 12.4 6 Sur 13 Sudoeste 0.8 -- -- 92
2017-10-18 07:00:00 12.6 5 Sudoeste 10 Sur 1.2 -- -- 91
2017-10-18 06:00:00 12.7 4 Sudoeste 8 Sudoeste 0.6 -- -- 90
2017-10-18 05:00:00 13.1 4 Sudoeste 8 Sur 1 -- -- 90
2017-10-18 04:00:00 13.2 4 Sudeste 9 Sudeste 0.8 -- -- 85
2017-10-18 03:00:00 13.9 4 Nordeste 6 Nordeste 0.6 -- -- 84
2017-10-18 02:00:00 14.5 4 Norte 8 Nordeste 0.2 -- -- 78
2017-10-18 01:00:00 15.1 3 Nordeste 6 Este 0 -- -- 65
2017-10-18 00:00:00 15.7 3 Nordeste 7 Nordeste 0 -- -- 62
2017-10-17 23:00:00 14.8 4 Este 6 Este 0 -- -- 65
2017-10-17 22:00:00 15.8 0 Calma 6 Oeste 0 -- -- 60
2017-10-17 21:00:00 16.9 4 Noroeste 10 Sudoeste 0 -- -- 56
2017-10-17 20:00:00 18 9 Sudoeste 28 Sudoeste 0 -- -- 53
2017-10-17 19:00:00 20.1 22 Sudoeste 35 Sudoeste 0 -- -- 44
2017-10-17 18:00:00 21.4 22 Sudoeste 40 Sudoeste 0 -- -- 42
2017-10-17 17:00:00 21.9 20 Sudoeste 30 Sudoeste 0 -- -- 43
2017-10-17 16:00:00 21.3 18 Sudoeste 35 Oeste 0 -- -- 48
2017-10-17 15:00:00 19.6 19 Sudoeste 28 Sur 0 -- -- 72
2017-10-17 14:00:00 17.9 8 Sudoeste 23 Sur 0 -- -- 90
2017-10-17 13:00:00 17.1 19 Sur 30 Sur 1.8 -- -- 90
2017-10-17 12:00:00 17.3 20 Sur 33 Sur 0 -- -- 90
2017-10-17 11:00:00 17.1 18 Sur 27 Sur 0.4 -- -- 87
2017-10-17 10:00:00 17.5 8 Sur 22 Sur 0.2 -- -- 84
2017-10-17 09:00:00 17.5 3 Sudoeste 22 Sur 0.4 -- -- 85
2017-10-17 08:00:00 17.6 7 Sur 22 Sur 1.8 -- -- 81
2017-10-17 07:00:00 19.1 7 Sudeste 10 Sudeste 0 -- -- 65
2017-10-17 06:00:00 19.2 6 Sudeste 9 Sur 0 -- -- 57
2017-10-17 05:00:00 19.8 4 Sudoeste 9 Sudoeste 0 -- -- 54
2017-10-17 04:00:00 19.7 0 Calma 5 Oeste 0 -- -- 51
2017-10-17 03:00:00 20 0 Calma 7 Sudoeste 0 -- -- 51
2017-10-17 02:00:00 20.8 3 Oeste 5 Este 0 -- -- 51
2017-10-17 01:00:00 21.2 5 Este 8 Este 0 -- -- 51
2017-10-17 00:00:00 21.4 5 Este 10 Nordeste 0 -- -- 52
2017-10-16 23:00:00 22.3 2 Sudeste 9 Oeste 0 -- -- 42
2017-10-16 22:00:00 23 6 Oeste 14 Oeste 0 -- -- 39
2017-10-16 21:00:00 22.9 9 Oeste 18 Oeste 0 -- -- 37
2017-10-16 20:00:00 23.5 14 Oeste 32 Oeste 0 -- -- 35
2017-10-16 19:00:00 25.9 9 Oeste 18 Oeste 0 -- -- 31
2017-10-16 18:00:00 27.3 7 Sudeste 23 Sudoeste 0 -- -- 27
2017-10-16 17:00:00 28.3 19 Sur 28 Sur 0 -- -- 25
2017-10-16 16:00:00 28.5 11 Sudoeste 29 Sur 0 -- -- 25
2017-10-16 15:00:00 28.9 15 Sur 31 Sur 0 -- -- 24
2017-10-16 14:00:00 26.7 15 Este 26 Este 0 -- -- 33
2017-10-16 13:00:00 25 14 Este 27 Este 0 -- -- 39
2017-10-16 12:00:00 23 17 Este 30 Este 0 -- -- 43
2017-10-16 11:00:00 21.7 14 Este 24 Este 0 -- -- 45
2017-10-16 10:00:00 20 13 Este 21 Este 0 -- -- 44
2017-10-16 09:00:00 17.8 12 Nordeste 20 Este 0 -- -- 45
2017-10-16 08:00:00 19 11 Nordeste 17 Nordeste 0 -- -- 35
2017-10-16 07:00:00 19.7 9 Nordeste 14 Nordeste 0 -- -- 33
2017-10-16 06:00:00 20.6 9 Nordeste 13 Nordeste 0 -- -- 32
2017-10-16 05:00:00 20.5 8 Nordeste 13 Nordeste 0 -- -- 33
2017-10-16 04:00:00 20.9 7 Norte 10 Nordeste -- -- -- 33
2017-10-16 03:00:00 21.8 4 Norte 10 Nordeste 0 -- -- 31
2017-10-16 02:00:00 22 8 Norte 12 Nordeste 0 -- -- 31
2017-10-16 01:00:00 23.7 7 Nordeste 9 Nordeste 0 -- -- 28
2017-10-16 00:00:00 24 3 Sudeste 8 Nordeste 0 -- -- 28
2017-10-15 23:00:00 24.7 5 Nordeste 10 Este 0 -- -- 27
2017-10-15 22:00:00 26.2 3 Este 12 Este 0 -- -- 25
2017-10-15 21:00:00 27.3 5 Sudeste 11 Sur 0 -- -- 24
2017-10-15 20:00:00 29.3 8 Sudeste 27 Sudeste 0 -- -- 22
2017-10-15 19:00:00 31.3 17 Sudeste 34 Sudeste 0 -- -- 21
2017-10-15 18:00:00 32.2 24 Sudeste 39 Sudeste 0 -- -- 20
2017-10-15 17:00:00 32.7 21 Sudeste 39 Sur 0 -- -- 20
2017-10-15 16:00:00 32.3 21 Sudeste 38 Sudeste 0 -- -- 21
2017-10-15 15:00:00 31.1 17 Este 30 Este 0 -- -- 27
2017-10-15 14:00:00 29 19 Este 33 Este 0 -- -- 30
2017-10-15 13:00:00 27.9 22 Este 39 Este 0 -- -- 32
2017-10-15 12:00:00 26.6 22 Este 35 Este 0 -- -- 32
2017-10-15 11:00:00 24.3 24 Este 42 Este 0 -- -- 33
2017-10-15 10:00:00 21 10 Nordeste 17 Nordeste 0 -- -- 42
2017-10-15 09:00:00 22.7 0 Calma 18 Nordeste 0 -- -- 37
2017-10-15 08:00:00 24.2 7 Nordeste 17 Nordeste 0 -- -- 34
2017-10-15 07:00:00 23 8 Nordeste 13 Sudoeste 0 -- -- 36
2017-10-15 06:00:00 23.3 3 Sudeste 17 Este 0 -- -- 35
2017-10-15 05:00:00 23.4 10 Nordeste 16 Este 0 -- -- 34
2017-10-15 04:00:00 24.1 11 Nordeste 17 Nordeste 0 -- -- 34
2017-10-15 03:00:00 22.6 4 Oeste 10 Este 0 -- -- 37
2017-10-15 02:00:00 24.6 7 Nordeste 9 Nordeste 0 -- -- 33
2017-10-15 01:00:00 24.1 3 Nordeste 6 Nordeste 0 -- -- 35
2017-10-15 00:00:00 25.2 5 Nordeste 10 Nordeste 0 -- -- 32
2017-10-14 23:00:00 25 4 Noroeste 7 Nordeste 0 -- -- 33
2017-10-14 22:00:00 26 8 Norte 24 Norte 0 -- -- 32
2017-10-14 21:00:00 26.2 15 Norte 23 Noroeste 0 -- -- 33
2017-10-14 20:00:00 28.1 4 Noroeste 27 Oeste 0 -- -- 29
2017-10-14 19:00:00 27.8 3 Nordeste 9 Nordeste 0 -- -- 31
2017-10-14 18:00:00 28.7 5 Norte 17 Nordeste 0 -- -- 28
2017-10-14 17:00:00 29.8 3 Oeste 12 Sur 0 -- -- 24
2017-10-14 16:00:00 29.7 4 Sudeste 11 Sur 0 -- -- 25
2017-10-14 15:00:00 28.8 4 Sur 15 Sudeste 0 -- -- 25
2017-10-14 14:00:00 27.8 7 Sudeste 16 Sudeste 0 -- -- 29
2017-10-14 13:00:00 26.1 8 Este 14 Este 0 -- -- 35
2017-10-14 12:00:00 23.4 6 Este 12 Sudeste 0 -- -- 35
2017-10-14 11:00:00 20.7 4 Este 13 Este 0 -- -- 40
2017-10-14 10:00:00 16.4 4 Nordeste 10 Oeste 0 -- -- 51
2017-10-14 09:00:00 19.2 6 Nordeste 15 Nordeste 0 -- -- 42
2017-10-14 08:00:00 18.2 10 Nordeste 15 Nordeste 0 -- -- 45
2017-10-14 07:00:00 17.9 7 Nordeste 10 Nordeste 0 -- -- 47
2017-10-14 06:00:00 16.3 2 Nordeste 10 Este 0 -- -- 53
2017-10-14 05:00:00 17.1 9 Este 10 Este 0 -- -- 49
2017-10-14 04:00:00 17.4 3 Este 5 Nordeste 0 -- -- 50
2017-10-14 03:00:00 17.8 4 Sudeste 5 Este 0 -- -- 47
2017-10-14 02:00:00 18.3 4 Este 6 Este 0 -- -- 45
2017-10-14 01:00:00 19.8 2 Sudeste 5 Sudeste 0 -- -- 41
2017-10-14 00:00:00 20.7 2 Nordeste 9 Nordeste 0 -- -- 38
2017-10-13 23:00:00 21.9 6 Nordeste 8 Nordeste 0 -- -- 35
2017-10-13 22:00:00 23 8 Sudoeste 10 Sudoeste 0 -- -- 33
2017-10-13 21:00:00 23.7 5 Noroeste 6 Norte 0 -- -- 35
2017-10-13 20:00:00 26.1 5 Noroeste 16 Sudoeste 0 -- -- 31
2017-10-13 19:00:00 29.2 9 Sudoeste 20 Sudoeste 0 -- -- 26
2017-10-13 18:00:00 29.9 10 Sudoeste 22 Oeste 0 -- -- 26
2017-10-13 17:00:00 30.3 13 Oeste 25 Sudoeste 0 -- -- 25
2017-10-13 16:00:00 29.6 14 Oeste 25 Oeste 0 -- -- 27
2017-10-13 15:00:00 28.7 9 Sudoeste 23 Sur 0 -- -- 31
2017-10-13 14:00:00 27.9 8 Sur 18 Sur 0 -- -- 33
2017-10-13 13:00:00 25.9 9 Sur 15 Sudeste 0 -- -- 40
2017-10-13 12:00:00 24.3 7 Sudeste 12 Sudeste 0 -- -- 41
2017-10-13 11:00:00 22.3 5 Este 11 Sudeste 0 -- -- 46
2017-10-13 10:00:00 19.8 5 Este 10 Este 0 -- -- 52
2017-10-13 09:00:00 16.3 3 Oeste 10 Este 0 -- -- 58
2017-10-13 08:00:00 18.4 5 Nordeste 9 Nordeste 0 -- -- 53
2017-10-13 07:00:00 18.3 4 Nordeste 10 Nordeste 0 -- -- 52
2017-10-13 06:00:00 19.2 5 Nordeste 8 Nordeste 0 -- -- 50
2017-10-13 05:00:00 20.7 3 Nordeste 7 Nordeste 0 -- -- 46
2017-10-13 04:00:00 20.4 2 Nordeste 7 Nordeste 0 -- -- 47
2017-10-13 03:00:00 20.9 6 Nordeste 7 Nordeste 0 -- -- 46
2017-10-13 02:00:00 20.9 5 Este 7 Sudeste 0 -- -- 45
2017-10-13 01:00:00 22.3 4 Oeste 6 Oeste 0 -- -- 41
2017-10-13 00:00:00 22.6 0 Calma 17 Sur 0 -- -- 41
2017-10-12 23:00:00 24.7 10 Sudoeste 17 Sur 0 -- -- 37
2017-10-12 22:00:00 25.1 8 Oeste 13 Sudoeste 0 -- -- 37
2017-10-12 21:00:00 25.4 6 Oeste 15 Sudoeste 0 -- -- 35
2017-10-12 20:00:00 27.2 12 Sudoeste 30 Sudoeste 0 -- -- 30
2017-10-12 19:00:00 29.9 20 Sudoeste 32 Sudoeste 0 -- -- 25
2017-10-12 18:00:00 31.4 17 Sur 33 Sudoeste 0 -- -- 23
2017-10-12 17:00:00 32.2 13 Sudoeste 28 Sur 0 -- -- 22
2017-10-12 16:00:00 31.6 12 Sudeste 28 Este 0 -- -- 21
2017-10-12 15:00:00 30.2 14 Este 29 Este 0 -- -- 22
2017-10-12 14:00:00 28.9 12 Este 23 Este 0 -- -- 23
2017-10-12 13:00:00 28 13 Este 30 Este 0 -- -- 23
2017-10-12 12:00:00 25.5 21 Este 31 Este 0 -- -- 25
2017-10-12 11:00:00 22.2 14 Este 23 Este 0 -- -- 31
2017-10-12 10:00:00 20.3 12 Nordeste 19 Este 0 -- -- 32
2017-10-12 09:00:00 18.7 11 Nordeste 18 Nordeste 0 -- -- 33
2017-10-12 08:00:00 18.4 7 Nordeste 14 Este 0 -- -- 33
2017-10-12 07:00:00 18.2 8 Nordeste 10 Nordeste 0 -- -- 32
2017-10-12 06:00:00 19.1 6 Este 13 Nordeste 0 -- -- 30
2017-10-12 05:00:00 18.7 8 Nordeste 12 Nordeste 0 -- -- 30
2017-10-12 04:00:00 22 9 Nordeste 13 Nordeste 0 -- -- 25
2017-10-12 03:00:00 20.9 8 Nordeste 11 Nordeste 0 -- -- 26
2017-10-12 02:00:00 18.5 5 Noroeste 10 Norte 0 -- -- 29
2017-10-12 01:00:00 24.1 8 Norte 12 Norte 0 -- -- 22
2017-10-12 00:00:00 21.9 4 Noroeste 8 Nordeste 0 -- -- 24
2017-10-11 23:00:00 23.8 3 Nordeste 6 Norte 0 -- -- 22
2017-10-11 22:00:00 24.5 5 Nordeste 6 Nordeste 0 -- -- 21
2017-10-11 21:00:00 23.7 3 Nordeste 6 Nordeste 0 -- -- 22
2017-10-11 20:00:00 25.8 3 Noroeste 8 Oeste 0 -- -- 20
2017-10-11 19:00:00 29 8 Oeste 19 Oeste 0 -- -- 17
2017-10-11 18:00:00 29.6 8 Oeste 26 Oeste 0 -- -- 17
2017-10-11 17:00:00 29.8 10 Noroeste 22 Oeste 0 -- -- 18
2017-10-11 16:00:00 29.4 11 Sur 22 Sur 0 -- -- 21
2017-10-11 15:00:00 29.2 10 Oeste 18 Sudoeste 0 -- -- 20
2017-10-11 14:00:00 27.7 7 Sur 16 Sudoeste 0 -- -- 24
2017-10-11 13:00:00 26.2 6 Sur 10 Sudoeste 0 -- -- 26
2017-10-11 12:00:00 23.6 6 Este 13 Sudeste 0 -- -- 29
2017-10-11 11:00:00 21.8 8 Sudeste 12 Sudeste 0 -- -- 30
2017-10-11 10:00:00 19.3 3 Este 7 Este 0 -- -- 34
2017-10-11 09:00:00 17.9 5 Nordeste 16 Nordeste 0 -- -- 35
2017-10-11 08:00:00 18.2 8 Nordeste 13 Nordeste 0 -- -- 32
2017-10-11 07:00:00 14.9 4 Norte 18 Nordeste 0 -- -- 39
2017-10-11 06:00:00 18.5 11 Nordeste 15 Nordeste 0 -- -- 32
2017-10-11 05:00:00 18.1 5 Nordeste 9 Nordeste 0 -- -- 33
2017-10-11 04:00:00 21.1 7 Nordeste 8 Norte 0 -- -- 28
2017-10-11 03:00:00 20 0 Calma 7 Nordeste 0 -- -- 29
2017-10-11 02:00:00 19.8 4 Nordeste 8 Nordeste 0 -- -- 30
2017-10-11 01:00:00 21.6 4 Oeste 5 Sudoeste 0 -- -- 27
2017-10-11 00:00:00 22.8 0 Calma 8 Norte 0 -- -- 25
2017-10-10 23:00:00 23.5 0 Calma 6 Sudoeste 0 -- -- 24
2017-10-10 22:00:00 23.7 3 Oeste 12 Norte 0 -- -- 24
2017-10-10 21:00:00 24.5 7 Norte 13 Norte 0 -- -- 23
2017-10-10 20:00:00 25.1 11 Norte 15 Norte 0 -- -- 23
2017-10-10 19:00:00 29.3 4 Oeste 15 Oeste 0 -- -- 18
2017-10-10 18:00:00 30.4 7 Oeste 18 Sudoeste 0 -- -- 17
2017-10-10 17:00:00 30.8 10 Sudoeste 19 Oeste 0 -- -- 17
2017-10-10 16:00:00 30.8 8 Oeste 15 Oeste 0 -- -- 17
2017-10-10 15:00:00 30 8 Sudoeste 16 Sur 0 -- -- 16
2017-10-10 14:00:00 28 7 Sudeste 17 Sudeste 0 -- -- 17
2017-10-10 13:00:00 26 12 Este 25 Sudeste 0 -- -- 19
2017-10-10 12:00:00 23.6 12 Este 18 Este 0 -- -- 22
2017-10-10 11:00:00 21.2 6 Este 9 Este 0 -- -- 24
2017-10-10 10:00:00 15.7 0 Calma 14 Nordeste 0 -- -- 35
2017-10-10 09:00:00 17.1 11 Nordeste 17 Nordeste 0 -- -- 29
2017-10-10 08:00:00 16.8 11 Nordeste 15 Nordeste 0 -- -- 28
2017-10-10 07:00:00 16.9 7 Nordeste 9 Nordeste 0 -- -- 28
2017-10-10 06:00:00 16.6 0 Calma 5 Este 0 -- -- 33
2017-10-10 05:00:00 17 3 Nordeste 4 Nordeste 0 -- -- 31
2017-10-10 04:00:00 17.7 0 Calma 8 Nordeste 0 -- -- 31
2017-10-10 03:00:00 18.1 3 Este 5 Este 0 -- -- 32
2017-10-10 02:00:00 18.7 2 Sudeste 10 Nordeste 0 -- -- 34
2017-10-10 01:00:00 21.3 6 Nordeste 11 Norte 0 -- -- 24
2017-10-10 00:00:00 21.9 7 Sudeste 12 Sudeste 0 -- -- 23
2017-10-09 23:00:00 21.7 6 Este 18 Sudoeste 0 -- -- 23
2017-10-09 22:00:00 23.1 2 Norte 7 Oeste 0 -- -- 20
2017-10-09 21:00:00 24.3 0 Calma 6 Noroeste 0 -- -- 20
2017-10-09 20:00:00 25.8 3 Norte 12 Oeste 0 -- -- 18
2017-10-09 19:00:00 29.2 9 Oeste 15 Oeste 0 -- -- 15
2017-10-09 18:00:00 30 12 Noroeste 21 Norte 0 -- -- 15
2017-10-09 17:00:00 31 13 Sudoeste 22 Oeste 0 -- -- 17
2017-10-09 16:00:00 30.6 6 Noroeste 14 Norte 0 -- -- 17
2017-10-09 15:00:00 30 7 Sudeste 14 Este 0 -- -- 16
2017-10-09 14:00:00 28.1 8 Este 18 Este 0 -- -- 19
2017-10-09 13:00:00 26.1 9 Este 19 Este 0 -- -- 22
2017-10-09 12:00:00 23.5 8 Este 13 Este 0 -- -- 28
2017-10-09 11:00:00 21.2 5 Este 12 Este 0 -- -- 31
2017-10-09 10:00:00 17.7 3 Este 9 Este 0 -- -- 36
2017-10-09 09:00:00 14.8 5 Este 8 Este 0 -- -- 41
2017-10-09 08:00:00 16 5 Nordeste 7 Nordeste 0 -- -- 36
2017-10-09 07:00:00 15.3 0 Calma 6 Nordeste 0 -- -- 43
2017-10-09 06:00:00 16 2 Nordeste 5 Nordeste 0 -- -- 40
2017-10-09 05:00:00 16.6 3 Sudeste 5 Nordeste 0 -- -- 36
2017-10-09 04:00:00 18.2 2 Sudoeste 6 Nordeste 0 -- -- 33
2017-10-09 03:00:00 19.3 3 Nordeste 5 Nordeste 0 -- -- 32
2017-10-09 02:00:00 19.4 0 Calma 6 Este 0 -- -- 40
2017-10-09 01:00:00 20.9 3 Sudeste 8 Sudeste 0 -- -- 29
2017-10-09 00:00:00 22.9 0 Calma 8 Este 0 -- -- 26
2017-10-08 23:00:00 23.8 4 Sudeste 12 Sudoeste 0 -- -- 24
2017-10-08 22:00:00 24.8 3 Oeste 9 Oeste 0 -- -- 22
2017-10-08 21:00:00 25.6 5 Oeste 10 Oeste 0 -- -- 21
2017-10-08 20:00:00 27.4 6 Oeste 16 Sudoeste 0 -- -- 21
2017-10-08 19:00:00 30.8 10 Oeste 18 Oeste 0 -- -- 18
2017-10-08 18:00:00 31.2 10 Oeste 22 Oeste 0 -- -- 20
2017-10-08 17:00:00 31.1 5 Sur 19 Sudoeste 0 -- -- 25
2017-10-08 16:00:00 30.3 8 Sur 33 Sur 0 -- -- 25
2017-10-08 15:00:00 28.5 8 Este 17 Este 0 -- -- 29
2017-10-08 14:00:00 26.9 10 Sudeste 19 Este 0 -- -- 31
2017-10-08 13:00:00 25 10 Este 24 Este 0 -- -- 40
2017-10-08 12:00:00 22.9 12 Este 24 Este 0 -- -- 47
2017-10-08 11:00:00 20.8 13 Este 24 Este 0 -- -- 51
2017-10-08 10:00:00 18.4 11 Este 19 Este 0 -- -- 55
2017-10-08 09:00:00 16.7 14 Nordeste 22 Nordeste 0 -- -- 57
2017-10-08 08:00:00 16.6 12 Nordeste 19 Nordeste 0 -- -- 49
2017-10-08 07:00:00 16.6 11 Nordeste 17 Nordeste 0 -- -- 31
2017-10-08 06:00:00 18.5 6 Nordeste 17 Nordeste 0 -- -- 26
2017-10-08 05:00:00 20 11 Nordeste 19 Nordeste 0 -- -- 27
2017-10-08 04:00:00 19.3 14 Nordeste 19 Nordeste 0 -- -- 23
2017-10-08 03:00:00 19.4 6 Este 14 Nordeste 0 -- -- 22
2017-10-08 02:00:00 23.1 10 Nordeste 19 Nordeste 0 -- -- 18
2017-10-08 01:00:00 23.1 12 Nordeste 18 Nordeste 0 -- -- 18
2017-10-08 00:00:00 23.7 11 Nordeste 18 Nordeste -- -- -- 15
2017-10-07 23:00:00 25 14 Nordeste 23 Nordeste 0 -- -- 13
2017-10-07 22:00:00 24.6 13 Nordeste 21 Nordeste 0 -- -- 13
2017-10-07 21:00:00 24.6 12 Nordeste 20 Nordeste 0 -- -- 11
2017-10-07 20:00:00 26.5 10 Nordeste 20 Este 0 -- -- 11
2017-10-07 19:00:00 29 12 Nordeste 19 Nordeste 0 -- -- 11
2017-10-07 18:00:00 29.9 12 Nordeste 29 Este 0 -- -- 11
2017-10-07 17:00:00 29.9 17 Este 27 Este 0 -- -- 11
2017-10-07 16:00:00 29.5 17 Este 32 Este 0 -- -- 12
2017-10-07 15:00:00 28.7 21 Este 39 Este 0 -- -- 14
2017-10-07 14:00:00 27.1 29 Este 42 Este 0 -- -- 14
2017-10-07 13:00:00 25.7 28 Este 42 Este 0 -- -- 13
2017-10-07 12:00:00 24.8 30 Este 42 Este 0 -- -- 14
2017-10-07 11:00:00 23.4 28 Este 45 Este 0 -- -- 15
2017-10-07 10:00:00 22.1 20 Nordeste 32 Nordeste 0 -- -- 19
2017-10-07 09:00:00 20.1 18 Nordeste 27 Norte 0 -- -- 26
2017-10-07 08:00:00 20.2 17 Nordeste 31 Nordeste 0 -- -- 27
2017-10-07 07:00:00 21 19 Nordeste 31 Nordeste 0 -- -- 27
2017-10-07 06:00:00 22.4 24 Nordeste 39 Nordeste 0 -- -- 27
2017-10-07 05:00:00 22.5 23 Nordeste 37 Nordeste 0 -- -- 31
2017-10-07 04:00:00 23.4 18 Nordeste 29 Nordeste 0 -- -- 28
2017-10-07 03:00:00 23.1 22 Norte 38 Norte 0 -- -- 28
2017-10-07 02:00:00 24 22 Norte 37 Norte 0 -- -- 28
2017-10-07 01:00:00 23.5 26 Norte 39 Norte 0 -- -- 29
2017-10-07 00:00:00 24.4 24 Norte 42 Norte 0 -- -- 27
2017-10-06 23:00:00 25.4 27 Norte 40 Norte 0 -- -- 23
2017-10-06 22:00:00 26.4 27 Norte 37 Norte 0 -- -- 21
2017-10-06 21:00:00 27 21 Norte 28 Norte 0 -- -- 20
2017-10-06 20:00:00 29.1 13 Norte 25 Norte 0 -- -- 21
2017-10-06 19:00:00 32.1 15 Norte 26 Norte 0 -- -- 18
2017-10-06 18:00:00 33 14 Norte 28 Norte 0 -- -- 18
2017-10-06 17:00:00 33.3 18 Norte 30 Norte 0 -- -- 21
2017-10-06 16:00:00 32.8 15 Norte 30 Norte 0 -- -- 22
2017-10-06 15:00:00 32.4 8 Nordeste 22 Norte 0 -- -- 25
2017-10-06 14:00:00 31.5 12 Nordeste 23 Nordeste 0 -- -- 26
2017-10-06 13:00:00 29.9 10 Nordeste 21 Norte 0 -- -- 29
2017-10-06 12:00:00 28.6 5 Sudeste 15 Sur 0 -- -- 32
2017-10-06 11:00:00 26.9 6 Sudeste 31 Nordeste 0 -- -- 33
2017-10-06 10:00:00 24.2 13 Nordeste 34 Norte 0 -- -- 36
2017-10-06 09:00:00 22.8 22 Norte 37 Norte 0 -- -- 37
2017-10-06 08:00:00 23 27 Norte 47 Norte 0 -- -- 36
2017-10-06 07:00:00 24.6 28 Norte 39 Norte 0 -- -- 32
2017-10-06 06:00:00 25.5 26 Norte 37 Norte 0 -- -- 29
2017-10-06 05:00:00 23.4 11 Noroeste 26 Norte 0 -- -- 34
2017-10-06 04:00:00 24.2 3 Este 18 Noroeste 0 -- -- 32
2017-10-06 03:00:00 25.5 7 Oeste 29 Norte 0 -- -- 31
2017-10-06 02:00:00 26.4 24 Norte 34 Norte 0 -- -- 30
2017-10-06 01:00:00 26.8 17 Noroeste 24 Noroeste 0 -- -- 30
2017-10-06 00:00:00 27.3 15 Noroeste 24 Noroeste 0 -- -- 31
2017-10-05 23:00:00 28.2 17 Noroeste 24 Noroeste 0 -- -- 29
2017-10-05 22:00:00 27.2 4 Noroeste 14 Noroeste 0 -- -- 32
2017-10-05 21:00:00 28.5 9 Noroeste 13 Noroeste 0 -- -- 31
2017-10-05 20:00:00 29.5 6 Noroeste 16 Oeste 0 -- -- 31
2017-10-05 19:00:00 32.4 5 Norte 20 Norte 0 -- -- 27
2017-10-05 18:00:00 32.6 13 Norte 20 Noroeste 0 -- -- 28
2017-10-05 17:00:00 32.7 10 Este 22 Sudeste 0 -- -- 28
2017-10-05 16:00:00 32.5 12 Sudeste 24 Sudeste 0 -- -- 28
2017-10-05 15:00:00 31.5 7 Sudeste 18 Este 0 -- -- 30
2017-10-05 14:00:00 30.4 12 Sudeste 19 Sudeste 0 -- -- 32
2017-10-05 13:00:00 28.9 9 Este 17 Este 0 -- -- 35
2017-10-05 12:00:00 27.1 9 Sudeste 18 Este 0 -- -- 39
2017-10-05 11:00:00 25 12 Este 18 Este 0 -- -- 41
2017-10-05 10:00:00 23 12 Nordeste 18 Nordeste 0 -- -- 46
2017-10-05 09:00:00 19.9 10 Nordeste 19 Nordeste 0 -- -- 56
2017-10-05 08:00:00 17.9 3 Noroeste 12 Nordeste 0 -- -- 50
2017-10-05 07:00:00 21.8 11 Nordeste 15 Nordeste 0 -- -- 43
2017-10-05 06:00:00 20.2 3 Norte 8 Nordeste 0 -- -- 41
2017-10-05 05:00:00 20 4 Noroeste 15 Sudeste 0 -- -- 42
2017-10-05 04:00:00 21 3 Sudeste 5 Oeste 0 -- -- 40
2017-10-05 03:00:00 22.1 3 Sudoeste 9 Nordeste 0 -- -- 40
2017-10-05 02:00:00 23.3 0 Calma 5 Norte 0 -- -- 35
2017-10-05 01:00:00 24.3 5 Sur 28 Norte 0 -- -- 33
2017-10-05 00:00:00 26.4 5 Noroeste 15 Oeste 0 -- -- 30
2017-10-04 23:00:00 26.6 7 Sudeste 22 Oeste 0 -- -- 28
2017-10-04 22:00:00 26.6 7 Oeste 14 Oeste 0 -- -- 31
2017-10-04 21:00:00 27.4 0 Calma 4 Sudoeste 0 -- -- 32
2017-10-04 20:00:00 30.8 4 Sudoeste 13 Sur 0 -- -- 27
2017-10-04 19:00:00 32 7 Sur 19 Sur 0 -- -- 26
2017-10-04 18:00:00 32.9 10 Sur 18 Sur 0 -- -- 26
2017-10-04 17:00:00 33.2 12 Sur 19 Sudoeste 0 -- -- 27
2017-10-04 16:00:00 32.2 10 Sudoeste 18 Sudoeste 0 -- -- 29
2017-10-04 15:00:00 30.5 8 Este 24 Este 0 -- -- 34
2017-10-04 14:00:00 29.2 14 Este 28 Este 0 -- -- 38
2017-10-04 13:00:00 27.6 17 Este 38 Este 0 -- -- 42
2017-10-04 12:00:00 25.9 26 Este 41 Este 0 -- -- 47
2017-10-04 11:00:00 24.1 26 Este 44 Este 0 -- -- 50
2017-10-04 10:00:00 23.2 28 Este 45 Este 0 -- -- 52
2017-10-04 09:00:00 22.2 25 Este 42 Este 0 -- -- 54
2017-10-04 08:00:00 22 24 Este 41 Este 0 -- -- 50
2017-10-04 07:00:00 21.3 11 Nordeste 19 Este 0 -- -- 49
2017-10-04 06:00:00 22.5 9 Nordeste 14 Este 0 -- -- 43
2017-10-04 05:00:00 23 11 Este 16 Norte 0 -- -- 42
2017-10-04 04:00:00 25.3 10 Norte 22 Norte 0 -- -- 33
2017-10-04 03:00:00 24.5 8 Este 18 Este 0 -- -- 40
2017-10-04 02:00:00 24.5 12 Nordeste 17 Nordeste 0 -- -- 41
2017-10-04 01:00:00 25.9 5 Oeste 10 Sudoeste 0 -- -- 37
2017-10-04 00:00:00 25.7 3 Este 11 Sudoeste 0 -- -- 38
2017-10-03 23:00:00 27 6 Sudoeste 9 Sudoeste 0 -- -- 35
2017-10-03 22:00:00 28.5 0 Calma 5 Norte 0 -- -- 32
2017-10-03 21:00:00 29.8 3 Noroeste 9 Oeste 0 -- -- 31
2017-10-03 20:00:00 31.7 10 Oeste 18 Oeste 0 -- -- 29
2017-10-03 19:00:00 33.7 6 Noroeste 18 Oeste 0 -- -- 28
2017-10-03 18:00:00 33.5 6 Este 20 Sudoeste 0 -- -- 28
2017-10-03 17:00:00 34 14 Oeste 22 Oeste 0 -- -- 28
2017-10-03 16:00:00 34 6 Sudoeste 18 Sudoeste 0 -- -- 29
2017-10-03 15:00:00 33 14 Sudoeste 30 Sudoeste 0 -- -- 31
2017-10-03 14:00:00 32.1 9 Sur 15 Sudeste 0 -- -- 32
2017-10-03 13:00:00 30.5 7 Sudeste 18 Sudeste 0 -- -- 35
2017-10-03 12:00:00 28.3 11 Este 19 Este 0 -- -- 39
2017-10-03 11:00:00 26.6 8 Este 13 Este 0 -- -- 43
2017-10-03 10:00:00 23.9 4 Sudeste 6 Este 0 -- -- 49
2017-10-03 09:00:00 20.6 2 Nordeste 8 Este 0 -- -- 56
2017-10-03 08:00:00 19.5 3 Nordeste 6 Sudoeste 0 -- -- 58
2017-10-03 07:00:00 21.4 3 Sudoeste 4 Sudoeste 0 -- -- 53
2017-10-03 06:00:00 21.9 2 Oeste 8 Norte 0 -- -- 51
2017-10-03 05:00:00 22.5 3 Nordeste 8 Sudoeste 0 -- -- 50
2017-10-03 04:00:00 23 6 Oeste 10 Oeste 0 -- -- 48
2017-10-03 03:00:00 23.6 8 Nordeste 9 Noroeste 0 -- -- 47
2017-10-03 02:00:00 23.9 7 Sudeste 13 Este 0 -- -- 45
2017-10-03 01:00:00 25.4 6 Norte 12 Norte 0 -- -- 42
2017-10-03 00:00:00 25.8 9 Nordeste 11 Nordeste 0 -- -- 42
2017-10-02 23:00:00 27.1 8 Nordeste 10 Nordeste 0 -- -- 38
2017-10-02 22:00:00 27 9 Nordeste 10 Nordeste 0 -- -- 36
2017-10-02 21:00:00 28.2 5 Nordeste 8 Sudoeste 0 -- -- 34
2017-10-02 20:00:00 31 5 Sudoeste 14 Oeste 0 -- -- 30
2017-10-02 19:00:00 32.5 7 Sudoeste 15 Este 0 -- -- 28
2017-10-02 18:00:00 32.6 3 Norte 14 Norte 0 -- -- 29
2017-10-02 17:00:00 32.4 7 Nordeste 32 Nordeste 0 -- -- 29
2017-10-02 16:00:00 32.1 6 Sur 17 Este 0 -- -- 28
2017-10-02 15:00:00 31 7 Norte 18 Norte 0 -- -- 31
2017-10-02 14:00:00 30.4 7 Nordeste 19 Este 0 -- -- 32
2017-10-02 13:00:00 29.5 8 Sudeste 17 Sudeste 0 -- -- 33
2017-10-02 12:00:00 28.5 8 Este 18 Este 0 -- -- 35
2017-10-02 11:00:00 26.7 8 Este 14 Nordeste 0 -- -- 38
2017-10-02 10:00:00 24.1 5 Este 8 Este 0 -- -- 43
2017-10-02 09:00:00 20.4 6 Este 9 Este 0 -- -- 52
2017-10-02 08:00:00 21.2 7 Sudeste 24 Norte 0 -- -- 49
2017-10-02 07:00:00 21.9 13 Norte 19 Norte 0 -- -- 47
2017-10-02 06:00:00 22.6 6 Nordeste 14 Norte 0 -- -- 45
2017-10-02 05:00:00 23.7 10 Norte 21 Norte 0 -- -- 42
2017-10-02 04:00:00 24.1 13 Norte 24 Norte 0 -- -- 42
2017-10-02 03:00:00 24.4 13 Nordeste 23 Nordeste 0 -- -- 41
2017-10-02 02:00:00 24.5 14 Norte 26 Norte 0 -- -- 41
2017-10-02 01:00:00 25.2 15 Norte 21 Norte 0 -- -- 39
2017-10-02 00:00:00 25.4 12 Norte 18 Norte 0 -- -- 38
2017-10-01 23:00:00 26.5 13 Nordeste 25 Nordeste 0 -- -- 35
2017-10-01 22:00:00 27.6 17 Nordeste 29 Nordeste 0 -- -- 34
2017-10-01 21:00:00 28 18 Norte 34 Norte 0 -- -- 32
2017-10-01 20:00:00 29.1 21 Nordeste 34 Nordeste 0 -- -- 30
2017-10-01 19:00:00 30.6 15 Nordeste 31 Nordeste 0 -- -- 28
2017-10-01 18:00:00 31.3 13 Nordeste 26 Norte 0 -- -- 28
2017-10-01 17:00:00 30.9 16 Norte 27 Noroeste 0 -- -- 29
2017-10-01 16:00:00 30 10 Nordeste 32 Nordeste 0 -- -- 31
2017-10-01 15:00:00 29.3 12 Noroeste 29 Norte 0 -- -- 32
2017-10-01 14:00:00 28.4 15 Norte 27 Norte 0 -- -- 35
2017-10-01 13:00:00 28 12 Norte 25 Nordeste 0 -- -- 35
2017-10-01 12:00:00 26.1 13 Norte 25 Norte 0 -- -- 38
2017-10-01 11:00:00 25 13 Norte 26 Nordeste 0 -- -- 39
2017-10-01 10:00:00 23.2 16 Nordeste 28 Nordeste 0 -- -- 42
2017-10-01 09:00:00 21.9 14 Norte 24 Nordeste 0 -- -- 45
2017-10-01 08:00:00 20.8 16 Norte 27 Norte 0 -- -- 46
2017-10-01 07:00:00 21.1 24 Norte 37 Norte 0 -- -- 45
2017-10-01 06:00:00 20.7 26 Norte 42 Norte 0 -- -- 47
2017-10-01 05:00:00 20.5 31 Norte 50 Norte 0 -- -- 48
2017-10-01 04:00:00 20.6 34 Norte 53 Norte 0 -- -- 48
2017-10-01 03:00:00 21.1 36 Norte 53 Norte 0 -- -- 47
2017-10-01 02:00:00 21.7 35 Norte 49 Norte 0 -- -- 45
2017-10-01 01:00:00 22.2 38 Norte 49 Norte 0 -- -- 44
2017-10-01 00:00:00 23 28 Norte 40 Norte -- -- -- 44
2017-09-30 23:00:00 24.1 27 Norte 41 Noroeste 0 -- -- 41
2017-09-30 22:00:00 24.4 25 Norte 35 Norte 0 -- -- 40
2017-09-30 21:00:00 24.8 20 Norte 33 Norte 0 -- -- 34
2017-09-30 20:00:00 26.7 15 Noroeste 27 Norte 0 -- -- 28
2017-09-30 19:00:00 28.1 17 Norte 29 Norte 0 -- -- 26
2017-09-30 18:00:00 29.4 11 Noroeste 30 Oeste 0 -- -- 31
2017-09-30 17:00:00 30 15 Oeste 29 Oeste 0 -- -- 31
2017-09-30 16:00:00 29.1 7 Noroeste 28 Oeste -- -- -- 32
2017-09-30 15:00:00 28.7 13 Oeste 25 Norte 0 -- -- 33
2017-09-30 14:00:00 27.5 9 Sudeste 23 Sudoeste 0 -- -- 37
2017-09-30 13:00:00 26.6 6 Sudeste 24 Sur 0 -- -- 41
2017-09-30 12:00:00 24.4 5 Sur 12 Sur 0 -- -- 46
2017-09-30 11:00:00 20.6 3 Sudoeste 7 Sur 0 -- -- 56
2017-09-30 10:00:00 18 3 Sur 6 Sudeste 0 -- -- 62
2017-09-30 09:00:00 17.1 3 Sur 6 Sudeste 0 -- -- 64
2017-09-30 08:00:00 17.3 0 Calma 8 Este 0 -- -- 61
2017-09-30 07:00:00 17.8 0 Calma 7 Sudoeste 0 -- -- 60
2017-09-30 06:00:00 18.9 3 Sur 9 Oeste 0 -- -- 56
2017-09-30 05:00:00 19.3 0 Calma 14 Nordeste 0 -- -- 53
2017-09-30 04:00:00 19.9 2 Este 5 Nordeste -- -- -- 50
2017-09-30 03:00:00 21.1 3 Sudoeste 8 Oeste 0 -- -- 46
2017-09-30 02:00:00 22.7 3 Oeste 15 Sudoeste 0 -- -- 42
2017-09-30 01:00:00 24.2 7 Noroeste 31 Norte 0 -- -- 39
2017-09-30 00:00:00 25 23 Norte 42 Noroeste 0 -- -- 38
2017-09-29 23:00:00 26.1 29 Noroeste 40 Noroeste 0 -- -- 35
2017-09-29 22:00:00 27.1 22 Noroeste 30 Noroeste 0 -- -- 33
2017-09-29 21:00:00 26.3 3 Noroeste 6 Noroeste 0 -- -- 35
2017-09-29 20:00:00 29 4 Oeste 17 Sudoeste 0 -- -- 30
2017-09-29 19:00:00 30.6 8 Sudoeste 22 Sudoeste 0 -- -- 28
2017-09-29 18:00:00 31.8 12 Sudoeste 27 Oeste 0 -- -- 27
2017-09-29 17:00:00 32.8 12 Sudoeste 24 Sudoeste 0 -- -- 26
2017-09-29 16:00:00 31.6 9 Sudoeste 17 Sudeste 0 -- -- 28
2017-09-29 15:00:00 30.7 8 Este 20 Sudeste 0 -- -- 30
2017-09-29 14:00:00 29.5 7 Este 22 Este 0 -- -- 32
2017-09-29 13:00:00 28 12 Este 23 Sudeste 0 -- -- 33
2017-09-29 12:00:00 26.7 12 Este 21 Este 0 -- -- 35
2017-09-29 11:00:00 24.9 12 Este 18 Este 0 -- -- 37
2017-09-29 10:00:00 22.9 5 Este 9 Este 0 -- -- 41
2017-09-29 09:00:00 20.5 7 Este 18 Norte 0 -- -- 44
2017-09-29 08:00:00 18 0 Calma 5 Sudoeste 0 -- -- 56
2017-09-29 07:00:00 19.4 4 Oeste 14 Norte 0 -- -- 53
2017-09-29 06:00:00 23.5 14 Norte 22 Norte 0 -- -- 37
2017-09-29 05:00:00 22.3 5 Norte 24 Norte 0 -- -- 39
2017-09-29 04:00:00 23.1 13 Norte 21 Norte 0 -- -- 37
2017-09-29 03:00:00 21.3 2 Sudeste 6 Oeste 0 -- -- 41
2017-09-29 02:00:00 22.6 4 Sudeste 7 Nordeste 0 -- -- 37
2017-09-29 01:00:00 24.2 4 Noroeste 12 Norte 0 -- -- 34
2017-09-29 00:00:00 24.9 8 Norte 13 Norte 0 -- -- 33
2017-09-28 23:00:00 25.3 9 Norte 14 Norte 0 -- -- 32
2017-09-28 22:00:00 25.2 9 Norte 13 Norte 0 -- -- 33
2017-09-28 21:00:00 26.4 2 Norte 6 Sudoeste 0 -- -- 32
2017-09-28 20:00:00 29.2 5 Sudoeste 10 Sudoeste 0 -- -- 27
2017-09-28 19:00:00 30.7 4 Oeste 18 Sudoeste 0 -- -- 25
2017-09-28 18:00:00 31.3 6 Sudoeste 19 Oeste 0 -- -- 24
2017-09-28 17:00:00 31.3 8 Sudoeste 19 Sur 0 -- -- 24
2017-09-28 16:00:00 30.5 12 Sur 20 Sudeste 0 -- -- 24
2017-09-28 15:00:00 30.1 10 Sudoeste 24 Sudoeste 0 -- -- 25
2017-09-28 14:00:00 28.3 8 Sudeste 23 Sudeste 0 -- -- 27
2017-09-28 13:00:00 26.9 12 Sudeste 20 Este 0 -- -- 29
2017-09-28 12:00:00 24.9 10 Sudeste 19 Sudeste 0 -- -- 34
2017-09-28 11:00:00 23.1 10 Sudeste 16 Sudeste 0 -- -- 36
2017-09-28 10:00:00 21.2 8 Este 12 Nordeste 0 -- -- 40
2017-09-28 09:00:00 18.8 10 Nordeste 18 Nordeste 0 -- -- 46
2017-09-28 08:00:00 18.3 6 Nordeste 13 Nordeste 0 -- -- 43
2017-09-28 07:00:00 19.2 9 Nordeste 12 Nordeste 0 -- -- 41
2017-09-28 06:00:00 19.3 7 Nordeste 11 Nordeste 0 -- -- 39
2017-09-28 05:00:00 18.9 8 Nordeste 12 Nordeste 0 -- -- 40
2017-09-28 04:00:00 18.1 4 Oeste 6 Nordeste 0 -- -- 37
2017-09-28 03:00:00 19.2 4 Nordeste 8 Nordeste 0 -- -- 35
2017-09-28 02:00:00 20.3 7 Nordeste 9 Nordeste 0 -- -- 34
2017-09-28 01:00:00 21.2 4 Nordeste 5 Nordeste 0 -- -- 31
2017-09-28 00:00:00 22.2 5 Nordeste 9 Este 0 -- -- 28
2017-09-27 23:00:00 22.9 6 Nordeste 8 Nordeste 0 -- -- 26
2017-09-27 22:00:00 22.9 5 Este 7 Este 0 -- -- 26
2017-09-27 21:00:00 24.7 2 Este 14 Sudeste 0 -- -- 24
2017-09-27 20:00:00 27 10 Sudeste 16 Sur 0 -- -- 21
2017-09-27 19:00:00 29.2 7 Sudoeste 17 Sur 0 -- -- 20
2017-09-27 18:00:00 29.5 6 Sur 22 Sur 0 -- -- 21
2017-09-27 17:00:00 29.6 8 Sur 24 Sudoeste 0 -- -- 21
2017-09-27 16:00:00 28.8 13 Sudeste 26 Sudeste 0 -- -- 23
2017-09-27 15:00:00 28.8 15 Sur 27 Sudeste 0 -- -- 24
2017-09-27 14:00:00 27.4 8 Sudeste 22 Sudeste 0 -- -- 29
2017-09-27 13:00:00 25.2 14 Sudeste 25 Sudeste 0 -- -- 32
2017-09-27 12:00:00 22.6 18 Este 30 Este 0 -- -- 39
2017-09-27 11:00:00 19.7 17 Este 28 Este 0 -- -- 47
2017-09-27 10:00:00 18.6 13 Este 24 Este 0 -- -- 45
2017-09-27 09:00:00 16.1 6 Este 13 Nordeste 0 -- -- 49
2017-09-27 08:00:00 18 12 Nordeste 19 Nordeste 0 -- -- 44
2017-09-27 07:00:00 18.1 11 Nordeste 14 Nordeste 0 -- -- 42
2017-09-27 06:00:00 16.9 4 Oeste 13 Nordeste 0 -- -- 42
2017-09-27 05:00:00 19.5 10 Nordeste 15 Nordeste 0 -- -- 37
2017-09-27 04:00:00 20.1 3 Noroeste 8 Nordeste 0 -- -- 36
2017-09-27 03:00:00 20.4 8 Nordeste 9 Norte 0 -- -- 35
2017-09-27 02:00:00 18 7 Noroeste 17 Sudeste 0 -- -- 39
2017-09-27 01:00:00 21.3 4 Nordeste 8 Nordeste 0 -- -- 32
2017-09-27 00:00:00 22.8 3 Norte 5 Norte 0 -- -- 30
2017-09-26 23:00:00 22.8 5 Norte 9 Norte 0 -- -- 28
2017-09-26 22:00:00 22.9 0 Calma 11 Norte 0 -- -- 30
2017-09-26 21:00:00 23.3 9 Norte 11 Norte 0 -- -- 30
2017-09-26 20:00:00 26.8 6 Norte 13 Norte 0 -- -- 26
2017-09-26 19:00:00 28.7 6 Noroeste 23 Norte 0 -- -- 25
2017-09-26 18:00:00 29.1 6 Noroeste 21 Noroeste 0 -- -- 24
2017-09-26 17:00:00 28.8 7 Sudeste 16 Este 0 -- -- 24
2017-09-26 16:00:00 28.6 8 Nordeste 23 Sudeste 0 -- -- 25
2017-09-26 15:00:00 28.2 10 Sur 21 Sudeste 0 -- -- 26
2017-09-26 14:00:00 26.6 11 Este 30 Este 0 -- -- 31
2017-09-26 13:00:00 25.5 21 Este 35 Este 0 -- -- 33
2017-09-26 12:00:00 24.1 20 Este 35 Este -- -- -- 37
2017-09-26 11:00:00 22.3 22 Este 35 Este 0 -- -- 43
2017-09-26 10:00:00 20.4 19 Este 32 Este 0 -- -- 44
2017-09-26 09:00:00 18.5 9 Nordeste 20 Norte 0 -- -- 40
2017-09-26 08:00:00 18.5 13 Norte 36 Norte 0 -- -- 41
2017-09-26 07:00:00 18.2 22 Norte 36 Norte 0 -- -- 43
2017-09-26 06:00:00 19.1 24 Norte 36 Norte 0 -- -- 40
2017-09-26 05:00:00 19.4 23 Norte 35 Norte 0 -- -- 37
2017-09-26 04:00:00 18.9 21 Norte 31 Noroeste 0 -- -- 39
2017-09-26 03:00:00 18.7 13 Norte 20 Norte 0 -- -- 39
2017-09-26 02:00:00 19.8 8 Norte 23 Norte 0 -- -- 35
2017-09-26 01:00:00 21 13 Norte 30 Norte 0 -- -- 33
2017-09-26 00:00:00 21.3 18 Norte 25 Noroeste 0 -- -- 32
2017-09-25 23:00:00 21.4 15 Norte 20 Norte 0 -- -- 32
2017-09-25 22:00:00 21.4 14 Norte 21 Noroeste 0 -- -- 30
2017-09-25 21:00:00 23.7 15 Noroeste 23 Noroeste 0 -- -- 28
2017-09-25 20:00:00 25.8 13 Noroeste 28 Noroeste 0 -- -- 26
2017-09-25 19:00:00 26.9 14 Norte 31 Norte 0 -- -- 26
2017-09-25 18:00:00 27.7 17 Noroeste 37 Noroeste 0 -- -- 26
2017-09-25 17:00:00 27.9 12 Noroeste 30 Noroeste 0 -- -- 26
2017-09-25 16:00:00 27 17 Norte 31 Norte 0 -- -- 28
2017-09-25 15:00:00 25.9 15 Noroeste 32 Noroeste 0 -- -- 32
2017-09-25 14:00:00 24.9 16 Noroeste 33 Oeste 0 -- -- 32
2017-09-25 13:00:00 23.7 17 Noroeste 31 Norte 0 -- -- 38
2017-09-25 12:00:00 22.5 14 Norte 26 Norte 0 -- -- 42
2017-09-25 11:00:00 20.6 22 Norte 30 Norte 0 -- -- 51
2017-09-25 10:00:00 18.9 10 Noroeste 23 Noroeste 0 -- -- 58
2017-09-25 09:00:00 17.4 8 Noroeste 20 Noroeste 0 -- -- 64
2017-09-25 08:00:00 17.3 3 Sudoeste 14 Sur 0 -- -- 69
2017-09-25 07:00:00 17.4 3 Sudeste 8 Oeste 0 -- -- 70
2017-09-25 06:00:00 18.5 3 Norte 25 Norte 0 -- -- 68
2017-09-25 05:00:00 19.3 19 Norte 31 Norte 0 -- -- 66
2017-09-25 04:00:00 20 12 Noroeste 22 Noroeste 0 -- -- 65
2017-09-25 03:00:00 19.4 5 Sudoeste 15 Sudoeste 0 -- -- 46
2017-09-25 02:00:00 20.4 6 Sur 11 Sudoeste 0 -- -- 38
2017-09-25 01:00:00 21.4 3 Sudeste 29 Noroeste 0 -- -- 31
2017-09-25 00:00:00 23.8 23 Noroeste 37 Noroeste 0 -- -- 26
2017-09-24 23:00:00 24.6 24 Oeste 35 Oeste 0 -- -- 22
2017-09-24 22:00:00 24.9 17 Oeste 28 Oeste 0 -- -- 19
2017-09-24 21:00:00 25.5 13 Oeste 28 Oeste 0 -- -- 16
2017-09-24 20:00:00 28.1 21 Oeste 32 Oeste 0 -- -- 13
2017-09-24 19:00:00 30.2 20 Sudoeste 31 Sudoeste 0 -- -- 23
2017-09-24 18:00:00 31.5 15 Sudoeste 35 Sudoeste 0 -- -- 25
2017-09-24 17:00:00 31.1 14 Sudoeste 31 Oeste 0 -- -- 26
2017-09-24 16:00:00 30.9 15 Sudoeste 31 Sudoeste 0 -- -- 26
2017-09-24 15:00:00 29.8 13 Sudoeste 27 Sudoeste 0 -- -- 27
2017-09-24 14:00:00 29 10 Sudoeste 26 Oeste 0 -- -- 29
2017-09-24 13:00:00 27.9 13 Sudoeste 20 Oeste 0 -- -- 32
2017-09-24 12:00:00 25.6 6 Sur 11 Sudoeste 0 -- -- 35
2017-09-24 11:00:00 22.7 3 Sudeste 8 Sur 0 -- -- 43
2017-09-24 10:00:00 19.6 5 Sudeste 7 Sudeste 0 -- -- 52
2017-09-24 09:00:00 16.5 4 Este 6 Este 0 -- -- 56
2017-09-24 08:00:00 16.7 2 Nordeste 6 Nordeste 0 -- -- 58
2017-09-24 07:00:00 16.7 5 Sudeste 10 Sudeste 0 -- -- 55
2017-09-24 06:00:00 17.6 5 Sudeste 8 Sudeste 0 -- -- 53
2017-09-24 05:00:00 18.8 2 Sudeste 7 Sudoeste 0 -- -- 48
2017-09-24 04:00:00 19.6 4 Sudoeste 10 Este 0 -- -- 46
2017-09-24 03:00:00 20.3 3 Sudoeste 16 Norte 0 -- -- 44
2017-09-24 02:00:00 23.1 6 Noroeste 35 Noroeste 0 -- -- 36
2017-09-24 01:00:00 23.8 25 Noroeste 37 Noroeste 0 -- -- 36
2017-09-24 00:00:00 23.7 6 Nordeste 26 Oeste 0 -- -- 33
2017-09-23 23:00:00 24.1 13 Oeste 23 Oeste 0 -- -- 33
2017-09-23 22:00:00 24.6 12 Norte 14 Norte 0 -- -- 33
2017-09-23 21:00:00 25 8 Norte 9 Noroeste 0 -- -- 33
2017-09-23 20:00:00 28.5 6 Sudoeste 17 Oeste 0 -- -- 26
2017-09-23 19:00:00 29.4 8 Sudoeste 17 Sur 0 -- -- 26
2017-09-23 18:00:00 30.2 8 Sudoeste 26 Oeste 0 -- -- 25
2017-09-23 17:00:00 30.8 15 Oeste 28 Oeste 0 -- -- 25
2017-09-23 16:00:00 29.8 13 Sur 22 Sudoeste 0 -- -- 28
2017-09-23 15:00:00 28.9 4 Este 20 Sudeste 0 -- -- 32
2017-09-23 14:00:00 27.8 8 Sudeste 19 Sudeste 0 -- -- 35
2017-09-23 13:00:00 26.3 14 Este 29 Este 0 -- -- 40
2017-09-23 12:00:00 24.4 15 Este 38 Este 0 -- -- 47
2017-09-23 11:00:00 22.3 23 Este 44 Este 0 -- -- 53
2017-09-23 10:00:00 20.8 24 Este 45 Este 0 -- -- 58
2017-09-23 09:00:00 19.4 23 Este 41 Este 0 -- -- 62
2017-09-23 08:00:00 19 19 Este 36 Este 0 -- -- 63
2017-09-23 07:00:00 19.5 21 Este 35 Este 0 -- -- 59
2017-09-23 06:00:00 20.3 20 Este 35 Este 0 -- -- 54
2017-09-23 05:00:00 20.4 18 Este 30 Este 0 -- -- 44
2017-09-23 04:00:00 19.7 7 Nordeste 21 Nordeste 0 -- -- 39
2017-09-23 03:00:00 19.8 2 Este 8 Sur 0 -- -- 42
2017-09-23 02:00:00 21.6 4 Este 12 Este 0 -- -- 42
2017-09-23 01:00:00 21.3 2 Sudeste 10 Nordeste 0 -- -- 38
2017-09-23 00:00:00 21.3 7 Oeste 12 Oeste 0 -- -- 35